OSDIOSKL

Guest
Details From OSDI - DAMASCUS INTL
To OSKL - KAMISHLY
Flight Number -
Tags decoded
Created
Modified
Stats Distance 361 nm / 669 km
Max Altitude 0 ft / 0 m
Waypoints 6
Social Downloads 2
Likes 0
Share VATSIM

Download

Looking for another format? Having issues loading an existing format? Contact us
Advertisement - Login to hide

Notes

Requested: OSDI DAM G202 TAN UL572 KML OSKL Unmatched points: UL572

Route

OSDI DAM G202 TAN KML OSKL

ID Type Via Altitude Latitude Longitude Leg Dist Tot Dist Heading (true) Name
O OSDI APT - 0 ft / 0 m 33.41063˚ 36.51426˚ - 0 nm - DAMASCUS INTL
DAM VOR - 0 ft / 0 m 33.36488˚ 36.46862˚ 3 nm 3 nm 220° / 220° DAMASCUS VOR-DME
ABBAS FIX G202 (AWY-LO) 0 ft / 0 m 33.43333˚ 37.72626˚ 63 nm 66 nm 86° / 87° -
TAN VOR G202 (AWY-LO) 0 ft / 0 m 33.48238˚ 38.65406˚ 46 nm 113 nm 86° / 87° TANF VOR-DME
KML NDB - 0 ft / 0 m 37.03031˚ 41.20531˚ 247 nm 360 nm 30° / 31° KAMISHLY NDB
O OSKL APT - 0 ft / 0 m 37.02063˚ 41.19140˚ 0 nm 361 nm 229° / 229° KAMISHLY

Altitude Profile

Advertisement - Login to hide

Weather


0- 5 10 15 20 25 30 35+ Temperature / ° C

Clouds and Precipitation
Forecast for 2017-12-11 18:00 UTC. Updated 31 minutes ago

Ground ~20,000 ft ~40,000 ft Winds

OSDI

Details ICAO OSDI (DAM)
Name DAMASCUS INTL
Region Syria
Timezone Asia/Damascus (UTC+2.0)
Stats Elevation 2,020 ft / 616 m (AMSL)
Location 33.410635° 36.514265°
Runways 2
Magnetic Variation 4.871° E

METAR

OSDI 111300Z 08006KT CAVOK 16/M08 Q1026

Decode

TAF

TAF OSDI 110315Z 1106/1212 VRB03KT CAVOK TEMPO 1112/1118 23012KT 9999 SCT030 BECMG 1208/1210 26018KT 9999 SCT030 BKN100

Decode

Departure Runways

ID Width Length Bearing (true) Bearing (mag) Surface Threshold Offset Overrun Length
05L 148 ft / 45 m 11,808 ft / 3,599 m 48.36° 43.49° Asphalt 0 ft / 0 m 197 ft / 60 m
05R 148 ft / 45 m 11,674 ft / 3,558 m 48.33° 43.46° Asphalt 0 ft / 0 m 197 ft / 60 m
23L 148 ft / 45 m 11,674 ft / 3,558 m 228.35° 223.48° Asphalt 0 ft / 0 m 197 ft / 60 m
23R 148 ft / 45 m 11,808 ft / 3,599 m 228.38° 223.51° Asphalt 0 ft / 0 m 197 ft / 60 m

OSKL

Details ICAO OSKL (KAC)
Name KAMISHLY
Region Syria
Timezone Asia/Damascus (UTC+2.0)
Stats Elevation 1,480 ft / 451 m (AMSL)
Location 37.020628° 41.191401°
Runways 1
Magnetic Variation 5.462° E

METAR

OSKL 111300Z 36006KT CAVOK 16/M01 Q1024

Decode

TAF

Not found

Destination Runways

ID Width Length Bearing (true) Bearing (mag) Surface Threshold Offset Overrun Length
03 150 ft / 46 m 11,870 ft / 3,618 m 38.76° 33.30° Asphalt 0 ft / 0 m 0 ft / 0 m
21 150 ft / 46 m 11,870 ft / 3,618 m 218.78° 213.32° Asphalt 0 ft / 0 m 0 ft / 0 m